sensor_id;sensor_type;location;lat;lon;timestamp;P1;durP1;ratioP1;P2;durP2;ratioP2
25381;SDS011;16307;42.896;20.874;2023-11-19T00:00:08;2.80;;;1.80;;
25381;SDS011;16307;42.896;20.874;2023-11-19T00:02:59;1.60;;;1.50;;
25381;SDS011;16307;42.896;20.874;2023-11-19T00:05:46;1.98;;;1.60;;
25381;SDS011;16307;42.896;20.874;2023-11-19T00:08:33;3.17;;;1.73;;
25381;SDS011;16307;42.896;20.874;2023-11-19T00:11:19;3.10;;;1.70;;
25381;SDS011;16307;42.896;20.874;2023-11-19T00:14:07;3.03;;;1.80;;
25381;SDS011;16307;42.896;20.874;2023-11-19T00:16:56;3.00;;;2.20;;
25381;SDS011;16307;42.896;20.874;2023-11-19T00:19:44;1.67;;;1.58;;
25381;SDS011;16307;42.896;20.874;2023-11-19T00:22:32;4.82;;;1.85;;
25381;SDS011;16307;42.896;20.874;2023-11-19T00:25:21;2.88;;;1.88;;
25381;SDS011;16307;42.896;20.874;2023-11-19T00:28:09;2.47;;;1.90;;
25381;SDS011;16307;42.896;20.874;2023-11-19T00:30:58;2.35;;;1.90;;
25381;SDS011;16307;42.896;20.874;2023-11-19T00:33:46;1.55;;;1.45;;
25381;SDS011;16307;42.896;20.874;2023-11-19T00:36:36;2.92;;;1.63;;
25381;SDS011;16307;42.896;20.874;2023-11-19T00:39:23;1.73;;;1.60;;
25381;SDS011;16307;42.896;20.874;2023-11-19T00:42:12;2.95;;;1.55;;
25381;SDS011;16307;42.896;20.874;2023-11-19T00:45:00;2.28;;;1.60;;
25381;SDS011;16307;42.896;20.874;2023-11-19T00:47:48;3.08;;;1.83;;
25381;SDS011;16307;42.896;20.874;2023-11-19T00:50:36;2.10;;;1.80;;
25381;SDS011;16307;42.896;20.874;2023-11-19T00:53:29;2.28;;;1.73;;
25381;SDS011;16307;42.896;20.874;2023-11-19T00:56:19;4.50;;;1.75;;
25381;SDS011;16307;42.896;20.874;2023-11-19T00:59:08;2.42;;;1.90;;
25381;SDS011;16307;42.896;20.874;2023-11-19T01:01:55;4.68;;;2.15;;
25381;SDS011;16307;42.896;20.874;2023-11-19T01:04:43;3.28;;;1.90;;
25381;SDS011;16307;42.896;20.874;2023-11-19T01:07:32;3.25;;;1.95;;
25381;SDS011;16307;42.896;20.874;2023-11-19T01:10:20;3.10;;;1.75;;
25381;SDS011;16307;42.896;20.874;2023-11-19T01:13:08;4.65;;;1.90;;
25381;SDS011;16307;42.896;20.874;2023-11-19T01:15:57;2.88;;;1.67;;
25381;SDS011;16307;42.896;20.874;2023-11-19T01:18:48;2.78;;;1.90;;
25381;SDS011;16307;42.896;20.874;2023-11-19T01:21:37;2.75;;;1.88;;
25381;SDS011;16307;42.896;20.874;2023-11-19T01:24:25;4.38;;;1.65;;
25381;SDS011;16307;42.896;20.874;2023-11-19T01:27:15;3.35;;;1.70;;
25381;SDS011;16307;42.896;20.874;2023-11-19T01:30:03;1.95;;;1.50;;
25381;SDS011;16307;42.896;20.874;2023-11-19T01:32:52;2.33;;;1.88;;
25381;SDS011;16307;42.896;20.874;2023-11-19T01:35:42;2.53;;;1.90;;
25381;SDS011;16307;42.896;20.874;2023-11-19T01:38:30;5.35;;;2.17;;
25381;SDS011;16307;42.896;20.874;2023-11-19T01:41:17;2.05;;;1.70;;
25381;SDS011;16307;42.896;20.874;2023-11-19T01:44:05;1.95;;;1.60;;
25381;SDS011;16307;42.896;20.874;2023-11-19T01:46:53;2.30;;;1.50;;
25381;SDS011;16307;42.896;20.874;2023-11-19T01:49:43;2.35;;;1.70;;
25381;SDS011;16307;42.896;20.874;2023-11-19T01:52:31;2.15;;;1.85;;
25381;SDS011;16307;42.896;20.874;2023-11-19T01:55:21;2.45;;;1.80;;
25381;SDS011;16307;42.896;20.874;2023-11-19T01:58:09;2.70;;;1.45;;
25381;SDS011;16307;42.896;20.874;2023-11-19T02:00:59;2.35;;;1.52;;
25381;SDS011;16307;42.896;20.874;2023-11-19T02:03:47;2.35;;;1.70;;
25381;SDS011;16307;42.896;20.874;2023-11-19T02:06:37;3.22;;;1.85;;
25381;SDS011;16307;42.896;20.874;2023-11-19T02:09:26;3.75;;;1.90;;
25381;SDS011;16307;42.896;20.874;2023-11-19T02:12:12;3.33;;;1.80;;
25381;SDS011;16307;42.896;20.874;2023-11-19T02:14:59;2.53;;;1.67;;
25381;SDS011;16307;42.896;20.874;2023-11-19T02:17:46;2.15;;;1.60;;
25381;SDS011;16307;42.896;20.874;2023-11-19T02:20:32;2.58;;;1.70;;
25381;SDS011;16307;42.896;20.874;2023-11-19T02:23:18;2.13;;;1.50;;
25381;SDS011;16307;42.896;20.874;2023-11-19T02:29:04;2.00;;;1.67;;
25381;SDS011;16307;42.896;20.874;2023-11-19T02:31:53;2.13;;;1.50;;
25381;SDS011;16307;42.896;20.874;2023-11-19T02:34:41;3.78;;;1.73;;
25381;SDS011;16307;42.896;20.874;2023-11-19T02:37:27;2.33;;;1.73;;
25381;SDS011;16307;42.896;20.874;2023-11-19T02:40:14;2.50;;;1.70;;
25381;SDS011;16307;42.896;20.874;2023-11-19T02:43:00;3.00;;;2.13;;
25381;SDS011;16307;42.896;20.874;2023-11-19T02:45:47;2.20;;;1.40;;
25381;SDS011;16307;42.896;20.874;2023-11-19T02:48:33;2.88;;;2.05;;
25381;SDS011;16307;42.896;20.874;2023-11-19T02:51:24;2.03;;;1.60;;
25381;SDS011;16307;42.896;20.874;2023-11-19T02:54:10;2.63;;;1.88;;
25381;SDS011;16307;42.896;20.874;2023-11-19T02:56:56;2.25;;;1.88;;
25381;SDS011;16307;42.896;20.874;2023-11-19T02:59:45;2.08;;;1.75;;
25381;SDS011;16307;42.896;20.874;2023-11-19T03:02:31;2.28;;;1.60;;
25381;SDS011;16307;42.896;20.874;2023-11-19T03:05:29;3.58;;;1.75;;
25381;SDS011;16307;42.896;20.874;2023-11-19T03:08:16;2.63;;;1.77;;
25381;SDS011;16307;42.896;20.874;2023-11-19T03:11:07;3.92;;;1.90;;
25381;SDS011;16307;42.896;20.874;2023-11-19T03:13:54;1.95;;;1.58;;
25381;SDS011;16307;42.896;20.874;2023-11-19T03:16:45;2.63;;;1.67;;
25381;SDS011;16307;42.896;20.874;2023-11-19T03:19:35;4.90;;;1.90;;
25381;SDS011;16307;42.896;20.874;2023-11-19T03:22:24;2.67;;;2.00;;
25381;SDS011;16307;42.896;20.874;2023-11-19T03:25:12;3.78;;;1.95;;
25381;SDS011;16307;42.896;20.874;2023-11-19T03:28:00;2.70;;;1.85;;
25381;SDS011;16307;42.896;20.874;2023-11-19T03:30:51;3.67;;;2.00;;
25381;SDS011;16307;42.896;20.874;2023-11-19T03:33:41;2.50;;;2.08;;
25381;SDS011;16307;42.896;20.874;2023-11-19T03:36:32;2.65;;;2.00;;
25381;SDS011;16307;42.896;20.874;2023-11-19T03:39:19;2.10;;;1.70;;
25381;SDS011;16307;42.896;20.874;2023-11-19T03:42:06;3.30;;;2.15;;
25381;SDS011;16307;42.896;20.874;2023-11-19T03:44:52;2.45;;;1.80;;
25381;SDS011;16307;42.896;20.874;2023-11-19T03:47:39;1.75;;;1.63;;
25381;SDS011;16307;42.896;20.874;2023-11-19T03:50:25;2.65;;;1.88;;
25381;SDS011;16307;42.896;20.874;2023-11-19T03:53:11;2.10;;;1.90;;
25381;SDS011;16307;42.896;20.874;2023-11-19T03:55:59;2.80;;;1.70;;
25381;SDS011;16307;42.896;20.874;2023-11-19T03:58:45;2.45;;;1.88;;
25381;SDS011;16307;42.896;20.874;2023-11-19T04:01:31;2.88;;;1.95;;
25381;SDS011;16307;42.896;20.874;2023-11-19T04:04:17;3.00;;;2.17;;
25381;SDS011;16307;42.896;20.874;2023-11-19T04:07:04;5.22;;;2.10;;
25381;SDS011;16307;42.896;20.874;2023-11-19T04:09:51;3.00;;;1.98;;
25381;SDS011;16307;42.896;20.874;2023-11-19T04:12:37;3.35;;;2.28;;
25381;SDS011;16307;42.896;20.874;2023-11-19T04:15:23;5.35;;;3.22;;
25381;SDS011;16307;42.896;20.874;2023-11-19T04:18:09;3.30;;;2.33;;
25381;SDS011;16307;42.896;20.874;2023-11-19T04:20:56;3.28;;;2.22;;
25381;SDS011;16307;42.896;20.874;2023-11-19T04:23:42;2.70;;;1.88;;
25381;SDS011;16307;42.896;20.874;2023-11-19T04:26:28;2.65;;;2.17;;
25381;SDS011;16307;42.896;20.874;2023-11-19T04:29:16;2.92;;;2.00;;
25381;SDS011;16307;42.896;20.874;2023-11-19T04:32:03;4.40;;;2.63;;
25381;SDS011;16307;42.896;20.874;2023-11-19T04:34:50;3.80;;;2.35;;
25381;SDS011;16307;42.896;20.874;2023-11-19T04:37:37;3.35;;;2.20;;
25381;SDS011;16307;42.896;20.874;2023-11-19T04:40:23;3.25;;;2.17;;
25381;SDS011;16307;42.896;20.874;2023-11-19T04:43:09;3.33;;;2.10;;
25381;SDS011;16307;42.896;20.874;2023-11-19T04:45:55;2.33;;;1.80;;
25381;SDS011;16307;42.896;20.874;2023-11-19T04:48:41;2.83;;;2.10;;
25381;SDS011;16307;42.896;20.874;2023-11-19T04:51:27;2.92;;;1.88;;
25381;SDS011;16307;42.896;20.874;2023-11-19T04:54:13;2.75;;;1.80;;
25381;SDS011;16307;42.896;20.874;2023-11-19T04:56:59;4.07;;;2.47;;
25381;SDS011;16307;42.896;20.874;2023-11-19T04:59:46;3.33;;;2.25;;
25381;SDS011;16307;42.896;20.874;2023-11-19T05:02:33;4.85;;;2.03;;
25381;SDS011;16307;42.896;20.874;2023-11-19T05:05:20;4.20;;;2.00;;
25381;SDS011;16307;42.896;20.874;2023-11-19T05:08:06;3.60;;;1.73;;
25381;SDS011;16307;42.896;20.874;2023-11-19T05:10:52;2.97;;;2.20;;
25381;SDS011;16307;42.896;20.874;2023-11-19T05:13:38;2.55;;;2.22;;
25381;SDS011;16307;42.896;20.874;2023-11-19T05:16:24;3.08;;;2.38;;
25381;SDS011;16307;42.896;20.874;2023-11-19T05:19:11;2.90;;;1.92;;
25381;SDS011;16307;42.896;20.874;2023-11-19T05:21:57;3.03;;;2.35;;
25381;SDS011;16307;42.896;20.874;2023-11-19T05:24:43;2.65;;;1.83;;
25381;SDS011;16307;42.896;20.874;2023-11-19T05:27:29;3.25;;;2.30;;
25381;SDS011;16307;42.896;20.874;2023-11-19T05:30:15;3.63;;;2.17;;
25381;SDS011;16307;42.896;20.874;2023-11-19T05:33:02;4.00;;;1.90;;
25381;SDS011;16307;42.896;20.874;2023-11-19T05:35:48;6.22;;;2.40;;
25381;SDS011;16307;42.896;20.874;2023-11-19T05:38:35;2.60;;;2.40;;
25381;SDS011;16307;42.896;20.874;2023-11-19T05:41:22;2.90;;;1.88;;
25381;SDS011;16307;42.896;20.874;2023-11-19T05:44:08;5.00;;;1.90;;
25381;SDS011;16307;42.896;20.874;2023-11-19T05:46:54;3.65;;;2.45;;
25381;SDS011;16307;42.896;20.874;2023-11-19T05:49:40;3.35;;;2.42;;
25381;SDS011;16307;42.896;20.874;2023-11-19T05:52:26;5.15;;;2.70;;
25381;SDS011;16307;42.896;20.874;2023-11-19T05:55:13;2.85;;;2.00;;
25381;SDS011;16307;42.896;20.874;2023-11-19T05:58:00;3.28;;;2.38;;
25381;SDS011;16307;42.896;20.874;2023-11-19T06:00:46;4.07;;;2.38;;
25381;SDS011;16307;42.896;20.874;2023-11-19T06:03:33;3.17;;;2.47;;
25381;SDS011;16307;42.896;20.874;2023-11-19T06:06:18;3.67;;;2.47;;
25381;SDS011;16307;42.896;20.874;2023-11-19T06:09:05;4.72;;;3.20;;
25381;SDS011;16307;42.896;20.874;2023-11-19T06:11:54;4.25;;;2.47;;
25381;SDS011;16307;42.896;20.874;2023-11-19T06:14:42;3.90;;;1.90;;
25381;SDS011;16307;42.896;20.874;2023-11-19T06:17:28;5.05;;;2.33;;
25381;SDS011;16307;42.896;20.874;2023-11-19T06:20:14;3.45;;;2.50;;
25381;SDS011;16307;42.896;20.874;2023-11-19T06:23:00;2.90;;;2.30;;
25381;SDS011;16307;42.896;20.874;2023-11-19T06:25:46;4.63;;;2.75;;
25381;SDS011;16307;42.896;20.874;2023-11-19T06:28:32;3.55;;;2.42;;
25381;SDS011;16307;42.896;20.874;2023-11-19T06:31:18;3.80;;;2.50;;
25381;SDS011;16307;42.896;20.874;2023-11-19T06:34:04;5.10;;;3.08;;
25381;SDS011;16307;42.896;20.874;2023-11-19T06:36:50;3.42;;;2.33;;
25381;SDS011;16307;42.896;20.874;2023-11-19T06:39:36;6.40;;;2.42;;
25381;SDS011;16307;42.896;20.874;2023-11-19T06:42:23;3.20;;;2.35;;
25381;SDS011;16307;42.896;20.874;2023-11-19T06:45:10;5.70;;;2.58;;
25381;SDS011;16307;42.896;20.874;2023-11-19T06:47:56;6.78;;;3.05;;
25381;SDS011;16307;42.896;20.874;2023-11-19T06:50:42;3.85;;;2.88;;
25381;SDS011;16307;42.896;20.874;2023-11-19T06:53:28;5.80;;;2.20;;
25381;SDS011;16307;42.896;20.874;2023-11-19T06:56:18;2.75;;;2.30;;
25381;SDS011;16307;42.896;20.874;2023-11-19T06:59:09;2.55;;;2.00;;
25381;SDS011;16307;42.896;20.874;2023-11-19T07:01:55;4.20;;;2.00;;
25381;SDS011;16307;42.896;20.874;2023-11-19T07:04:41;2.08;;;1.77;;
25381;SDS011;16307;42.896;20.874;2023-11-19T07:07:27;3.53;;;1.85;;
25381;SDS011;16307;42.896;20.874;2023-11-19T07:10:13;3.17;;;2.30;;
25381;SDS011;16307;42.896;20.874;2023-11-19T07:12:59;2.67;;;2.03;;
25381;SDS011;16307;42.896;20.874;2023-11-19T07:15:45;2.38;;;1.80;;
25381;SDS011;16307;42.896;20.874;2023-11-19T07:18:32;2.95;;;2.00;;
25381;SDS011;16307;42.896;20.874;2023-11-19T07:21:18;2.05;;;1.80;;
25381;SDS011;16307;42.896;20.874;2023-11-19T07:24:05;4.65;;;2.40;;
25381;SDS011;16307;42.896;20.874;2023-11-19T07:26:53;2.00;;;1.70;;
25381;SDS011;16307;42.896;20.874;2023-11-19T07:29:40;3.00;;;1.95;;
25381;SDS011;16307;42.896;20.874;2023-11-19T07:32:26;1.60;;;1.45;;
25381;SDS011;16307;42.896;20.874;2023-11-19T07:35:12;2.17;;;1.50;;
25381;SDS011;16307;42.896;20.874;2023-11-19T07:37:58;2.75;;;1.50;;
25381;SDS011;16307;42.896;20.874;2023-11-19T07:40:44;7.13;;;2.67;;
25381;SDS011;16307;42.896;20.874;2023-11-19T07:43:44;4.05;;;2.00;;
25381;SDS011;16307;42.896;20.874;2023-11-19T07:46:32;4.28;;;2.15;;
25381;SDS011;16307;42.896;20.874;2023-11-19T07:49:18;2.17;;;1.83;;
25381;SDS011;16307;42.896;20.874;2023-11-19T07:52:04;2.35;;;1.63;;
25381;SDS011;16307;42.896;20.874;2023-11-19T07:55:06;4.60;;;1.90;;
25381;SDS011;16307;42.896;20.874;2023-11-19T07:57:53;1.60;;;1.50;;
25381;SDS011;16307;42.896;20.874;2023-11-19T08:00:40;2.13;;;1.85;;
25381;SDS011;16307;42.896;20.874;2023-11-19T08:03:26;2.25;;;1.77;;
25381;SDS011;16307;42.896;20.874;2023-11-19T08:06:12;3.30;;;1.77;;
25381;SDS011;16307;42.896;20.874;2023-11-19T08:08:58;2.20;;;1.80;;
25381;SDS011;16307;42.896;20.874;2023-11-19T08:11:45;2.65;;;1.92;;
25381;SDS011;16307;42.896;20.874;2023-11-19T08:14:31;1.92;;;1.48;;
25381;SDS011;16307;42.896;20.874;2023-11-19T08:17:18;2.97;;;1.67;;
25381;SDS011;16307;42.896;20.874;2023-11-19T08:20:05;2.08;;;1.52;;
25381;SDS011;16307;42.896;20.874;2023-11-19T08:22:55;2.00;;;1.75;;
25381;SDS011;16307;42.896;20.874;2023-11-19T08:25:42;4.78;;;1.90;;
25381;SDS011;16307;42.896;20.874;2023-11-19T08:28:28;2.45;;;1.60;;
25381;SDS011;16307;42.896;20.874;2023-11-19T08:31:14;2.28;;;1.73;;
25381;SDS011;16307;42.896;20.874;2023-11-19T08:34:00;2.28;;;1.70;;
25381;SDS011;16307;42.896;20.874;2023-11-19T08:36:49;2.28;;;1.60;;
25381;SDS011;16307;42.896;20.874;2023-11-19T08:39:36;2.70;;;1.75;;
25381;SDS011;16307;42.896;20.874;2023-11-19T08:42:23;3.78;;;1.60;;
25381;SDS011;16307;42.896;20.874;2023-11-19T08:45:09;3.47;;;1.80;;
25381;SDS011;16307;42.896;20.874;2023-11-19T08:47:56;2.47;;;1.83;;
25381;SDS011;16307;42.896;20.874;2023-11-19T08:50:43;2.70;;;1.80;;
25381;SDS011;16307;42.896;20.874;2023-11-19T08:53:29;4.22;;;1.80;;
25381;SDS011;16307;42.896;20.874;2023-11-19T08:56:15;2.13;;;1.77;;
25381;SDS011;16307;42.896;20.874;2023-11-19T08:59:01;2.78;;;1.85;;
25381;SDS011;16307;42.896;20.874;2023-11-19T09:01:48;2.88;;;1.73;;
25381;SDS011;16307;42.896;20.874;2023-11-19T09:04:34;3.25;;;1.77;;
25381;SDS011;16307;42.896;20.874;2023-11-19T09:07:20;1.90;;;1.65;;
25381;SDS011;16307;42.896;20.874;2023-11-19T09:10:07;3.17;;;1.67;;
25381;SDS011;16307;42.896;20.874;2023-11-19T09:12:54;2.95;;;1.70;;
25381;SDS011;16307;42.896;20.874;2023-11-19T09:15:43;4.03;;;1.85;;
25381;SDS011;16307;42.896;20.874;2023-11-19T09:18:30;3.42;;;1.65;;
25381;SDS011;16307;42.896;20.874;2023-11-19T09:21:17;3.13;;;1.83;;
25381;SDS011;16307;42.896;20.874;2023-11-19T09:24:04;2.03;;;1.45;;
25381;SDS011;16307;42.896;20.874;2023-11-19T09:26:52;6.13;;;1.60;;
25381;SDS011;16307;42.896;20.874;2023-11-19T09:29:40;2.05;;;1.85;;
25381;SDS011;16307;42.896;20.874;2023-11-19T09:32:26;2.95;;;1.95;;
25381;SDS011;16307;42.896;20.874;2023-11-19T09:35:13;1.95;;;1.55;;
25381;SDS011;16307;42.896;20.874;2023-11-19T09:38:00;2.78;;;1.70;;
25381;SDS011;16307;42.896;20.874;2023-11-19T09:40:49;2.67;;;2.03;;
25381;SDS011;16307;42.896;20.874;2023-11-19T09:43:35;2.38;;;1.52;;
25381;SDS011;16307;42.896;20.874;2023-11-19T09:46:25;2.60;;;1.80;;
25381;SDS011;16307;42.896;20.874;2023-11-19T09:49:11;1.85;;;1.42;;
25381;SDS011;16307;42.896;20.874;2023-11-19T09:51:59;2.30;;;1.70;;
25381;SDS011;16307;42.896;20.874;2023-11-19T09:54:45;2.65;;;1.73;;
25381;SDS011;16307;42.896;20.874;2023-11-19T09:57:31;3.70;;;1.65;;
25381;SDS011;16307;42.896;20.874;2023-11-19T10:00:18;3.70;;;1.90;;
25381;SDS011;16307;42.896;20.874;2023-11-19T10:03:04;4.18;;;1.70;;
25381;SDS011;16307;42.896;20.874;2023-11-19T10:05:56;3.35;;;2.08;;
25381;SDS011;16307;42.896;20.874;2023-11-19T10:08:43;4.57;;;1.80;;
25381;SDS011;16307;42.896;20.874;2023-11-19T10:11:30;2.78;;;2.05;;
25381;SDS011;16307;42.896;20.874;2023-11-19T10:14:16;3.17;;;2.13;;
25381;SDS011;16307;42.896;20.874;2023-11-19T10:17:07;4.35;;;2.55;;
25381;SDS011;16307;42.896;20.874;2023-11-19T10:19:53;3.78;;;2.17;;
25381;SDS011;16307;42.896;20.874;2023-11-19T10:22:40;3.25;;;1.92;;
25381;SDS011;16307;42.896;20.874;2023-11-19T10:25:27;3.70;;;2.10;;
25381;SDS011;16307;42.896;20.874;2023-11-19T10:28:16;2.25;;;1.55;;
25381;SDS011;16307;42.896;20.874;2023-11-19T10:31:04;3.55;;;2.00;;
25381;SDS011;16307;42.896;20.874;2023-11-19T10:33:51;3.00;;;2.22;;
25381;SDS011;16307;42.896;20.874;2023-11-19T10:36:39;4.90;;;2.17;;
25381;SDS011;16307;42.896;20.874;2023-11-19T10:42:39;2.47;;;1.77;;
25381;SDS011;16307;42.896;20.874;2023-11-19T10:45:26;2.58;;;1.90;;
25381;SDS011;16307;42.896;20.874;2023-11-19T10:48:12;2.72;;;1.80;;
25381;SDS011;16307;42.896;20.874;2023-11-19T10:50:58;2.00;;;1.45;;
25381;SDS011;16307;42.896;20.874;2023-11-19T10:53:45;3.70;;;2.40;;
25381;SDS011;16307;42.896;20.874;2023-11-19T10:56:34;4.60;;;2.10;;
25381;SDS011;16307;42.896;20.874;2023-11-19T10:59:21;3.97;;;2.15;;
25381;SDS011;16307;42.896;20.874;2023-11-19T11:02:09;3.58;;;2.10;;
25381;SDS011;16307;42.896;20.874;2023-11-19T11:04:59;3.45;;;2.10;;
25381;SDS011;16307;42.896;20.874;2023-11-19T11:07:45;5.93;;;2.10;;
25381;SDS011;16307;42.896;20.874;2023-11-19T11:10:32;2.63;;;2.17;;
25381;SDS011;16307;42.896;20.874;2023-11-19T11:13:42;2.47;;;1.80;;
25381;SDS011;16307;42.896;20.874;2023-11-19T11:16:28;4.65;;;2.30;;
25381;SDS011;16307;42.896;20.874;2023-11-19T11:19:17;3.17;;;1.80;;
25381;SDS011;16307;42.896;20.874;2023-11-19T11:22:04;3.03;;;1.75;;
25381;SDS011;16307;42.896;20.874;2023-11-19T11:27:49;3.53;;;1.77;;
25381;SDS011;16307;42.896;20.874;2023-11-19T11:34:09;4.78;;;1.95;;
25381;SDS011;16307;42.896;20.874;2023-11-19T11:39:54;2.17;;;1.70;;
25381;SDS011;16307;42.896;20.874;2023-11-19T11:42:45;2.17;;;1.70;;
25381;SDS011;16307;42.896;20.874;2023-11-19T11:45:38;3.25;;;1.90;;
25381;SDS011;16307;42.896;20.874;2023-11-19T11:48:26;3.22;;;1.92;;
25381;SDS011;16307;42.896;20.874;2023-11-19T11:51:13;5.97;;;2.00;;
25381;SDS011;16307;42.896;20.874;2023-11-19T11:54:00;3.85;;;1.60;;
25381;SDS011;16307;42.896;20.874;2023-11-19T12:00:03;3.78;;;1.70;;
25381;SDS011;16307;42.896;20.874;2023-11-19T12:02:51;3.42;;;1.80;;
25381;SDS011;16307;42.896;20.874;2023-11-19T12:05:40;4.38;;;1.52;;
25381;SDS011;16307;42.896;20.874;2023-11-19T12:08:32;2.60;;;1.80;;
25381;SDS011;16307;42.896;20.874;2023-11-19T12:11:37;1.70;;;1.45;;
25381;SDS011;16307;42.896;20.874;2023-11-19T12:17:51;3.60;;;2.10;;
25381;SDS011;16307;42.896;20.874;2023-11-19T12:20:38;2.53;;;1.50;;
25381;SDS011;16307;42.896;20.874;2023-11-19T12:23:26;12.20;;;4.22;;
25381;SDS011;16307;42.896;20.874;2023-11-19T12:26:21;12.73;;;5.68;;
25381;SDS011;16307;42.896;20.874;2023-11-19T12:29:18;15.90;;;6.57;;
25381;SDS011;16307;42.896;20.874;2023-11-19T12:32:04;22.85;;;9.18;;
25381;SDS011;16307;42.896;20.874;2023-11-19T12:34:53;16.05;;;7.95;;
25381;SDS011;16307;42.896;20.874;2023-11-19T12:37:45;14.18;;;6.72;;
25381;SDS011;16307;42.896;20.874;2023-11-19T12:40:32;14.77;;;6.07;;
25381;SDS011;16307;42.896;20.874;2023-11-19T12:43:22;12.45;;;6.07;;
25381;SDS011;16307;42.896;20.874;2023-11-19T12:49:05;13.27;;;6.70;;
25381;SDS011;16307;42.896;20.874;2023-11-19T12:51:52;15.02;;;5.65;;
25381;SDS011;16307;42.896;20.874;2023-11-19T12:54:39;11.30;;;5.63;;
25381;SDS011;16307;42.896;20.874;2023-11-19T12:57:41;11.90;;;5.60;;
25381;SDS011;16307;42.896;20.874;2023-11-19T13:00:27;10.88;;;4.60;;
25381;SDS011;16307;42.896;20.874;2023-11-19T13:03:14;10.98;;;5.25;;
25381;SDS011;16307;42.896;20.874;2023-11-19T13:06:15;17.80;;;7.90;;
25381;SDS011;16307;42.896;20.874;2023-11-19T13:09:01;10.25;;;5.25;;
25381;SDS011;16307;42.896;20.874;2023-11-19T13:11:47;9.25;;;5.13;;
25381;SDS011;16307;42.896;20.874;2023-11-19T13:14:37;11.02;;;4.90;;
25381;SDS011;16307;42.896;20.874;2023-11-19T13:17:24;10.25;;;4.68;;
25381;SDS011;16307;42.896;20.874;2023-11-19T13:20:11;8.27;;;4.28;;
25381;SDS011;16307;42.896;20.874;2023-11-19T13:23:00;10.75;;;6.07;;
25381;SDS011;16307;42.896;20.874;2023-11-19T13:25:47;15.27;;;7.53;;
25381;SDS011;16307;42.896;20.874;2023-11-19T13:28:34;9.65;;;4.15;;
25381;SDS011;16307;42.896;20.874;2023-11-19T13:31:21;9.20;;;4.68;;
25381;SDS011;16307;42.896;20.874;2023-11-19T13:34:08;8.10;;;5.03;;
25381;SDS011;16307;42.896;20.874;2023-11-19T13:36:54;5.50;;;3.60;;
25381;SDS011;16307;42.896;20.874;2023-11-19T13:39:41;6.90;;;3.90;;
25381;SDS011;16307;42.896;20.874;2023-11-19T13:42:28;9.02;;;4.63;;
25381;SDS011;16307;42.896;20.874;2023-11-19T13:45:14;10.07;;;4.65;;
25381;SDS011;16307;42.896;20.874;2023-11-19T13:48:01;8.68;;;5.22;;
25381;SDS011;16307;42.896;20.874;2023-11-19T13:50:47;17.08;;;6.80;;
25381;SDS011;16307;42.896;20.874;2023-11-19T13:53:33;18.52;;;7.82;;
25381;SDS011;16307;42.896;20.874;2023-11-19T13:56:22;13.80;;;6.65;;
25381;SDS011;16307;42.896;20.874;2023-11-19T13:59:09;12.25;;;7.28;;
25381;SDS011;16307;42.896;20.874;2023-11-19T14:01:55;23.15;;;9.95;;
25381;SDS011;16307;42.896;20.874;2023-11-19T14:04:41;17.00;;;7.97;;
25381;SDS011;16307;42.896;20.874;2023-11-19T14:07:27;16.60;;;6.93;;
25381;SDS011;16307;42.896;20.874;2023-11-19T14:10:14;19.42;;;9.02;;
25381;SDS011;16307;42.896;20.874;2023-11-19T14:13:00;16.77;;;7.85;;
25381;SDS011;16307;42.896;20.874;2023-11-19T14:15:46;15.13;;;7.55;;
25381;SDS011;16307;42.896;20.874;2023-11-19T14:18:35;14.93;;;7.05;;
25381;SDS011;16307;42.896;20.874;2023-11-19T14:21:21;16.55;;;7.90;;
25381;SDS011;16307;42.896;20.874;2023-11-19T14:24:07;16.00;;;8.27;;
25381;SDS011;16307;42.896;20.874;2023-11-19T14:26:54;17.92;;;9.48;;
25381;SDS011;16307;42.896;20.874;2023-11-19T14:29:39;25.85;;;12.30;;
25381;SDS011;16307;42.896;20.874;2023-11-19T14:32:26;25.63;;;11.80;;
25381;SDS011;16307;42.896;20.874;2023-11-19T14:35:12;30.02;;;13.40;;
25381;SDS011;16307;42.896;20.874;2023-11-19T14:37:58;43.25;;;20.25;;
25381;SDS011;16307;42.896;20.874;2023-11-19T14:40:45;31.65;;;15.60;;
25381;SDS011;16307;42.896;20.874;2023-11-19T14:43:31;39.00;;;15.88;;
25381;SDS011;16307;42.896;20.874;2023-11-19T14:46:17;32.50;;;13.48;;
25381;SDS011;16307;42.896;20.874;2023-11-19T14:49:04;31.02;;;13.77;;
25381;SDS011;16307;42.896;20.874;2023-11-19T14:51:50;25.08;;;12.60;;
25381;SDS011;16307;42.896;20.874;2023-11-19T14:54:37;25.17;;;11.48;;
25381;SDS011;16307;42.896;20.874;2023-11-19T14:57:26;20.63;;;10.25;;
25381;SDS011;16307;42.896;20.874;2023-11-19T15:00:12;25.27;;;12.13;;
25381;SDS011;16307;42.896;20.874;2023-11-19T15:02:59;26.83;;;13.60;;
25381;SDS011;16307;42.896;20.874;2023-11-19T15:05:45;27.15;;;12.50;;
25381;SDS011;16307;42.896;20.874;2023-11-19T15:08:32;24.33;;;11.20;;
25381;SDS011;16307;42.896;20.874;2023-11-19T15:11:19;24.20;;;11.90;;
25381;SDS011;16307;42.896;20.874;2023-11-19T15:14:05;24.48;;;12.65;;
25381;SDS011;16307;42.896;20.874;2023-11-19T15:16:51;22.13;;;10.27;;
25381;SDS011;16307;42.896;20.874;2023-11-19T15:19:38;22.42;;;11.00;;
25381;SDS011;16307;42.896;20.874;2023-11-19T15:22:24;24.30;;;11.18;;
25381;SDS011;16307;42.896;20.874;2023-11-19T15:25:11;20.98;;;10.30;;
25381;SDS011;16307;42.896;20.874;2023-11-19T15:27:57;23.67;;;10.60;;
25381;SDS011;16307;42.896;20.874;2023-11-19T15:30:43;19.83;;;10.55;;
25381;SDS011;16307;42.896;20.874;2023-11-19T15:33:29;24.88;;;10.25;;
25381;SDS011;16307;42.896;20.874;2023-11-19T15:36:15;25.63;;;13.10;;
25381;SDS011;16307;42.896;20.874;2023-11-19T15:39:04;21.80;;;11.18;;
25381;SDS011;16307;42.896;20.874;2023-11-19T15:41:51;20.73;;;11.48;;
25381;SDS011;16307;42.896;20.874;2023-11-19T15:44:37;26.10;;;12.93;;
25381;SDS011;16307;42.896;20.874;2023-11-19T15:47:24;20.83;;;9.00;;
25381;SDS011;16307;42.896;20.874;2023-11-19T15:50:10;18.60;;;8.73;;
25381;SDS011;16307;42.896;20.874;2023-11-19T15:52:56;21.02;;;9.35;;
25381;SDS011;16307;42.896;20.874;2023-11-19T15:55:43;17.75;;;9.05;;
25381;SDS011;16307;42.896;20.874;2023-11-19T15:58:30;20.75;;;8.63;;
25381;SDS011;16307;42.896;20.874;2023-11-19T16:01:19;19.42;;;9.00;;
25381;SDS011;16307;42.896;20.874;2023-11-19T16:04:05;39.63;;;14.02;;
25381;SDS011;16307;42.896;20.874;2023-11-19T16:06:52;24.65;;;9.50;;
25381;SDS011;16307;42.896;20.874;2023-11-19T16:09:38;34.38;;;12.02;;
25381;SDS011;16307;42.896;20.874;2023-11-19T16:12:24;21.58;;;9.55;;
25381;SDS011;16307;42.896;20.874;2023-11-19T16:15:11;25.98;;;10.93;;
25381;SDS011;16307;42.896;20.874;2023-11-19T16:17:58;25.00;;;11.35;;
25381;SDS011;16307;42.896;20.874;2023-11-19T16:20:44;20.92;;;8.77;;
25381;SDS011;16307;42.896;20.874;2023-11-19T16:23:31;16.77;;;8.50;;
25381;SDS011;16307;42.896;20.874;2023-11-19T16:26:17;17.88;;;8.45;;
25381;SDS011;16307;42.896;20.874;2023-11-19T16:29:03;18.40;;;7.03;;
25381;SDS011;16307;42.896;20.874;2023-11-19T16:31:49;15.80;;;8.30;;
25381;SDS011;16307;42.896;20.874;2023-11-19T16:34:37;16.75;;;8.38;;
25381;SDS011;16307;42.896;20.874;2023-11-19T16:37:28;16.98;;;7.88;;
25381;SDS011;16307;42.896;20.874;2023-11-19T16:40:14;19.75;;;8.27;;
25381;SDS011;16307;42.896;20.874;2023-11-19T16:43:01;16.70;;;7.93;;
25381;SDS011;16307;42.896;20.874;2023-11-19T16:45:47;21.20;;;8.52;;
25381;SDS011;16307;42.896;20.874;2023-11-19T16:48:33;21.70;;;9.43;;
25381;SDS011;16307;42.896;20.874;2023-11-19T16:51:19;16.95;;;8.45;;
25381;SDS011;16307;42.896;20.874;2023-11-19T16:54:05;15.75;;;7.68;;